Time;durP1;ratioP1;P1;durP2;ratioP2;P2;SDS_P1;SDS_P2;PMS_P1;PMS_P2;Temp;Humidity;BMP_temperature;BMP_pressure;BME280_temperature;BME280_humidity;BME280_pressure;Samples;Min_cycle;Max_cycle;Signal;HPM_P1;HPM_P2
2023/07/12 00:00:50;;;;;;;5.75;3.28;;;19.30;99.90;;;;;;5020505;28;20049;-58
2023/07/12 00:03:17;;;;;;;7.80;3.60;;;19.30;99.90;;;;;;5014651;28;20062;-59
2023/07/12 00:05:44;;;;;;;9.82;3.65;;;19.20;99.90;;;;;;5008462;28;20472;-59
2023/07/12 00:08:29;;;;;;;8.30;3.75;;;19.20;99.90;;;;;;5029602;28;20033;-60
2023/07/12 00:10:57;;;;;;;5.50;3.20;;;19.20;99.90;;;;;;5027962;28;20053;-60
2023/07/12 00:13:24;;;;;;;6.00;3.85;;;19.20;99.90;;;;;;5029703;28;20518;-60
2023/07/12 00:15:51;;;;;;;5.50;2.70;;;19.10;99.90;;;;;;5012163;28;20049;-58
2023/07/12 00:18:25;;;;;;;6.97;3.70;;;19.10;99.90;;;;;;5017859;28;20077;-59
2023/07/12 00:20:53;;;;;;;5.38;3.58;;;19.10;99.90;;;;;;5020041;28;20400;-59
2023/07/12 00:23:19;;;;;;;5.85;3.67;;;19.10;99.90;;;;;;5046715;28;20481;-60
2023/07/12 00:25:47;;;;;;;6.18;3.42;;;19.10;99.90;;;;;;5013297;28;20142;-60
2023/07/12 00:28:21;;;;;;;6.10;3.58;;;19.00;99.90;;;;;;5011508;28;20040;-60
2023/07/12 00:30:47;;;;;;;4.53;3.42;;;19.00;99.90;;;;;;5009966;28;20037;-59
2023/07/12 00:33:13;;;;;;;5.85;3.53;;;19.00;99.90;;;;;;5022404;28;20407;-59
2023/07/12 00:35:42;;;;;;;5.45;3.05;;;19.00;99.90;;;;;;5013979;28;20064;-61
2023/07/12 00:38:17;;;;;;;8.07;3.67;;;19.00;99.90;;;;;;5040574;28;20048;-61
2023/07/12 00:41:04;;;;;;;6.10;3.70;;;19.00;99.90;;;;;;5021700;28;20091;-60
2023/07/12 00:43:41;;;;;;;8.88;3.50;;;19.00;99.90;;;;;;5025975;28;20127;-60
2023/07/12 00:46:36;;;;;;;5.30;3.20;;;18.90;99.90;;;;;;5036075;28;20128;-60
2023/07/12 00:49:02;;;;;;;5.45;3.03;;;18.90;99.90;;;;;;5012214;28;20111;-59
2023/07/12 00:51:32;;;;;;;7.45;3.42;;;18.90;99.90;;;;;;5022205;28;20385;-60
2023/07/12 00:53:58;;;;;;;6.22;3.42;;;18.90;99.90;;;;;;5018591;28;20091;-59
2023/07/12 00:56:25;;;;;;;9.30;4.13;;;18.90;99.90;;;;;;5021447;28;20073;-60
2023/07/12 00:59:03;;;;;;;6.72;3.60;;;18.90;99.90;;;;;;5020981;28;20506;-59
2023/07/12 01:01:31;;;;;;;7.22;3.97;;;18.80;99.90;;;;;;5023321;28;20041;-60
2023/07/12 01:03:57;;;;;;;7.45;4.28;;;18.80;99.90;;;;;;5042365;28;20040;-59
2023/07/12 01:06:24;;;;;;;5.20;3.63;;;18.80;99.90;;;;;;5024514;28;20061;-60
2023/07/12 01:08:50;;;;;;;5.82;4.03;;;18.80;99.90;;;;;;5030657;28;20041;-60
2023/07/12 01:11:17;;;;;;;7.93;4.32;;;18.80;99.90;;;;;;5019876;28;20087;-60
2023/07/12 01:13:45;;;;;;;10.13;4.53;;;18.70;99.90;;;;;;5005951;28;20116;-57
2023/07/12 01:16:17;;;;;;;6.95;4.35;;;18.70;99.90;;;;;;5019035;28;20090;-59
2023/07/12 01:18:43;;;;;;;7.00;3.85;;;18.70;99.90;;;;;;5017490;28;20052;-60
2023/07/12 01:21:18;;;;;;;7.75;3.75;;;18.70;99.90;;;;;;5024189;28;20038;-59
2023/07/12 01:23:44;;;;;;;7.95;3.83;;;18.80;99.90;;;;;;5026463;28;20037;-60
2023/07/12 01:26:29;;;;;;;5.65;3.40;;;18.70;99.90;;;;;;5012976;28;20033;-60
2023/07/12 01:28:58;;;;;;;7.88;3.55;;;18.70;99.90;;;;;;5009283;28;20116;-60
2023/07/12 01:31:25;;;;;;;8.88;3.95;;;18.70;99.90;;;;;;5016435;28;20420;-58
2023/07/12 01:33:52;;;;;;;5.82;2.95;;;18.70;99.90;;;;;;5023400;28;20068;-61
2023/07/12 01:36:19;;;;;;;7.55;2.85;;;18.70;99.90;;;;;;5045084;28;20049;-59
2023/07/12 01:38:44;;;;;;;8.55;3.20;;;18.60;99.90;;;;;;5011873;28;20068;-60
2023/07/12 01:41:10;;;;;;;10.00;3.28;;;18.60;99.90;;;;;;5038539;28;20059;-59
2023/07/12 01:43:37;;;;;;;12.05;3.25;;;18.60;99.90;;;;;;5028436;28;20640;-59
2023/07/12 01:46:03;;;;;;;8.18;3.25;;;18.60;99.90;;;;;;5045801;28;20037;-60
2023/07/12 01:48:28;;;;;;;8.32;2.78;;;18.60;99.90;;;;;;5016430;28;20141;-60
2023/07/12 01:50:54;;;;;;;10.70;3.17;;;18.50;99.90;;;;;;5008124;28;20116;-60
2023/07/12 01:53:20;;;;;;;7.95;3.28;;;18.50;99.90;;;;;;5015319;28;20128;-61
2023/07/12 01:55:46;;;;;;;10.05;2.80;;;18.50;99.90;;;;;;5040791;28;20105;-61
2023/07/12 01:58:12;;;;;;;8.18;3.03;;;18.50;99.90;;;;;;5031255;28;20044;-61
2023/07/12 02:00:38;;;;;;;10.43;4.00;;;18.50;99.90;;;;;;5030866;28;20081;-59
2023/07/12 02:03:04;;;;;;;11.25;4.05;;;18.50;99.90;;;;;;5006292;28;20052;-59
2023/07/12 02:05:30;;;;;;;9.70;3.40;;;18.50;99.90;;;;;;5032250;28;20466;-60
2023/07/12 02:07:56;;;;;;;10.75;3.25;;;18.50;99.90;;;;;;5028218;28;20403;-59
2023/07/12 02:10:26;;;;;;;9.88;3.67;;;18.50;99.90;;;;;;5050560;28;20048;-59
2023/07/12 02:12:52;;;;;;;12.32;3.50;;;18.50;99.90;;;;;;5015942;28;20044;-61
2023/07/12 02:15:18;;;;;;;18.40;5.25;;;18.50;99.90;;;;;;5042402;28;20154;-60
2023/07/12 02:17:45;;;;;;;12.02;3.95;;;18.50;99.90;;;;;;5025694;28;20037;-60
2023/07/12 02:20:12;;;;;;;13.23;3.33;;;18.50;99.90;;;;;;5046806;28;20246;-60
2023/07/12 02:22:43;;;;;;;9.40;3.15;;;18.50;99.90;;;;;;5027818;28;20523;-59
2023/07/12 02:25:10;;;;;;;10.80;3.70;;;18.50;99.90;;;;;;5030102;28;20047;-59
2023/07/12 02:27:37;;;;;;;13.00;3.33;;;18.50;99.90;;;;;;5000981;28;20042;-60
2023/07/12 02:30:07;;;;;;;10.23;3.65;;;18.50;99.90;;;;;;5027528;28;20523;-59
2023/07/12 02:32:32;;;;;;;13.93;3.85;;;18.50;99.90;;;;;;5029623;28;20080;-59
2023/07/12 02:34:58;;;;;;;9.60;3.58;;;18.50;99.90;;;;;;5038402;28;20503;-59
2023/07/12 02:37:24;;;;;;;12.90;4.30;;;18.50;99.90;;;;;;5034665;28;20049;-61
2023/07/12 02:39:49;;;;;;;9.80;3.40;;;18.40;99.90;;;;;;5041105;28;20033;-60
2023/07/12 02:42:15;;;;;;;12.63;4.68;;;18.40;99.90;;;;;;5012075;28;20488;-58
2023/07/12 02:44:41;;;;;;;14.45;4.70;;;18.40;99.90;;;;;;5024239;28;20052;-60
2023/07/12 02:47:09;;;;;;;9.25;3.30;;;18.40;99.90;;;;;;5041780;28;20402;-59
2023/07/12 02:49:36;;;;;;;13.00;4.70;;;18.40;99.90;;;;;;5028147;28;20041;-59
2023/07/12 02:52:04;;;;;;;12.30;4.40;;;18.40;99.90;;;;;;5050543;28;20047;-59
2023/07/12 02:54:33;;;;;;;11.50;4.03;;;18.40;99.90;;;;;;5034407;23;20036;-56
2023/07/12 02:57:00;;;;;;;13.38;3.92;;;18.40;99.90;;;;;;5046573;28;20094;-57
2023/07/12 02:59:25;;;;;;;13.23;4.20;;;18.40;99.90;;;;;;5051901;28;20044;-55
2023/07/12 03:01:52;;;;;;;13.25;4.60;;;18.40;99.90;;;;;;5074913;28;20067;-52
2023/07/12 03:04:19;;;;;;;10.63;3.67;;;18.40;99.90;;;;;;5063117;28;20037;-56
2023/07/12 03:06:45;;;;;;;14.05;4.25;;;18.40;99.90;;;;;;5032751;28;20451;-56
2023/07/12 03:09:11;;;;;;;15.38;4.93;;;18.30;99.90;;;;;;5039652;28;20094;-53
2023/07/12 03:11:37;;;;;;;14.25;4.45;;;18.30;99.90;;;;;;5033148;28;20493;-54
2023/07/12 03:14:02;;;;;;;16.20;4.85;;;18.30;99.90;;;;;;5048726;28;20076;-54
2023/07/12 03:16:28;;;;;;;15.68;4.47;;;18.30;99.90;;;;;;5027632;28;20472;-55
2023/07/12 03:18:55;;;;;;;10.90;4.00;;;18.30;99.90;;;;;;5051511;28;20044;-55
2023/07/12 03:21:21;;;;;;;14.05;4.57;;;18.30;99.90;;;;;;5015302;28;20060;-53
2023/07/12 03:23:47;;;;;;;12.02;4.25;;;18.30;99.90;;;;;;5035870;28;20040;-55
2023/07/12 03:26:14;;;;;;;11.85;5.47;;;18.30;99.90;;;;;;5036113;28;20106;-53
2023/07/12 03:28:39;;;;;;;16.63;4.38;;;18.30;99.90;;;;;;5033699;28;20086;-57
2023/07/12 03:31:11;;;;;;;15.65;4.70;;;18.30;99.90;;;;;;5051863;28;20041;-56
2023/07/12 03:33:37;;;;;;;16.40;5.18;;;18.30;99.90;;;;;;5029370;28;20043;-56
2023/07/12 03:36:04;;;;;;;19.75;5.25;;;18.30;99.90;;;;;;5029848;28;20048;-56
2023/07/12 03:38:30;;;;;;;14.30;4.72;;;18.30;99.90;;;;;;5049979;28;20412;-51
2023/07/12 03:40:59;;;;;;;17.55;5.78;;;18.30;99.90;;;;;;5032606;28;20342;-53
2023/07/12 03:43:26;;;;;;;15.60;4.95;;;18.30;99.90;;;;;;5026224;28;20046;-54
2023/07/12 03:45:52;;;;;;;13.48;4.95;;;18.20;99.90;;;;;;5010917;28;20041;-52
2023/07/12 03:48:19;;;;;;;13.77;5.05;;;18.20;99.90;;;;;;5029968;28;20550;-52
2023/07/12 03:50:50;;;;;;;15.18;5.18;;;18.30;99.90;;;;;;5016428;28;20132;-53
2023/07/12 03:53:16;;;;;;;16.20;4.47;;;18.20;99.90;;;;;;5030618;28;20033;-54
2023/07/12 03:55:43;;;;;;;16.38;4.85;;;18.20;99.90;;;;;;5047801;28;20400;-52
2023/07/12 03:58:15;;;;;;;16.58;4.55;;;18.30;99.90;;;;;;5002085;28;20037;-52
2023/07/12 04:00:42;;;;;;;16.92;4.88;;;18.20;99.90;;;;;;5027536;28;20048;-50
2023/07/12 04:03:10;;;;;;;17.05;4.70;;;18.20;99.90;;;;;;5029709;28;20072;-54
2023/07/12 04:05:41;;;;;;;12.25;4.32;;;18.20;99.90;;;;;;5028034;28;20094;-51
2023/07/12 04:08:07;;;;;;;18.75;5.68;;;18.20;99.90;;;;;;5026544;28;20076;-54
2023/07/12 04:10:34;;;;;;;17.63;4.88;;;18.20;99.90;;;;;;5027043;28;20110;-54
2023/07/12 04:13:01;;;;;;;15.93;4.75;;;18.20;99.90;;;;;;5052312;28;20040;-52
2023/07/12 04:15:27;;;;;;;18.42;5.25;;;18.20;99.90;;;;;;5045888;28;20072;-54
2023/07/12 04:17:52;;;;;;;20.38;5.28;;;18.20;99.90;;;;;;5013075;28;20155;-55
2023/07/12 04:20:18;;;;;;;18.83;4.72;;;18.20;99.90;;;;;;5027289;28;20292;-51
2023/07/12 04:22:47;;;;;;;16.15;4.55;;;18.20;99.90;;;;;;5012941;28;20499;-54
2023/07/12 04:25:13;;;;;;;20.70;5.07;;;18.20;99.90;;;;;;5047897;28;20048;-51
2023/07/12 04:27:39;;;;;;;21.00;5.43;;;18.20;99.90;;;;;;5048438;28;20037;-54
2023/07/12 04:30:11;;;;;;;19.02;4.82;;;18.20;99.90;;;;;;5040161;28;20597;-54
2023/07/12 04:32:36;;;;;;;17.88;5.07;;;18.20;99.90;;;;;;5028440;28;20418;-51
2023/07/12 04:35:03;;;;;;;15.35;4.70;;;18.20;99.90;;;;;;5027215;28;20132;-55
2023/07/12 04:37:30;;;;;;;16.88;5.25;;;18.20;99.90;;;;;;5017938;28;20047;-55
2023/07/12 04:39:56;;;;;;;15.05;4.68;;;18.20;99.90;;;;;;5023586;28;20049;-54
2023/07/12 04:42:22;;;;;;;24.50;6.38;;;18.20;99.90;;;;;;5032414;28;20048;-53
2023/07/12 04:44:48;;;;;;;18.15;5.00;;;18.20;99.90;;;;;;5030034;28;20048;-52
2023/07/12 04:47:17;;;;;;;15.00;4.25;;;18.20;99.90;;;;;;5030816;28;20496;-53
2023/07/12 04:49:43;;;;;;;19.83;5.53;;;18.30;99.90;;;;;;5031446;28;20037;-53
2023/07/12 04:52:12;;;;;;;22.25;5.65;;;18.30;99.90;;;;;;5029402;28;20049;-53
2023/07/12 04:54:40;;;;;;;18.70;5.80;;;18.30;99.90;;;;;;5013006;28;20563;-55
2023/07/12 04:57:06;;;;;;;18.88;5.03;;;18.40;99.90;;;;;;5024745;28;20033;-55
2023/07/12 04:59:33;;;;;;;16.23;4.82;;;18.40;99.90;;;;;;5034695;28;20040;-55
2023/07/12 05:01:58;;;;;;;23.08;5.35;;;18.40;99.90;;;;;;5048986;28;20446;-55
2023/07/12 05:04:24;;;;;;;19.00;5.13;;;18.50;99.90;;;;;;5028992;28;20037;-55
2023/07/12 05:06:51;;;;;;;15.30;5.10;;;18.50;99.90;;;;;;5034829;28;20032;-55
2023/07/12 05:09:18;;;;;;;19.88;5.18;;;18.50;99.90;;;;;;5012652;28;20709;-53
2023/07/12 05:11:43;;;;;;;16.02;4.60;;;18.50;99.90;;;;;;5012143;28;20044;-54
2023/07/12 05:14:09;;;;;;;19.88;5.10;;;18.60;99.90;;;;;;5031931;28;20286;-55
2023/07/12 05:16:35;;;;;;;16.67;5.78;;;18.60;99.90;;;;;;5030063;28;20731;-52
2023/07/12 05:19:00;;;;;;;15.90;5.25;;;18.60;99.90;;;;;;5029227;28;20041;-55
2023/07/12 05:21:26;;;;;;;19.95;4.90;;;18.60;99.90;;;;;;5019714;28;20570;-54
2023/07/12 05:23:52;;;;;;;17.88;4.95;;;18.60;99.90;;;;;;5033018;28;20041;-55
2023/07/12 05:26:18;;;;;;;16.60;5.50;;;18.70;99.90;;;;;;5036035;28;20053;-55
2023/07/12 05:28:43;;;;;;;19.85;5.95;;;18.70;99.90;;;;;;5049093;28;20086;-54
2023/07/12 05:31:12;;;;;;;13.73;5.15;;;18.70;99.90;;;;;;5022336;28;20088;-55
2023/07/12 05:33:42;;;;;;;23.45;5.80;;;18.80;99.90;;;;;;5026283;28;20043;-54
2023/07/12 05:36:08;;;;;;;18.23;6.22;;;18.90;99.90;;;;;;5028950;28;20033;-53
2023/07/12 05:38:34;;;;;;;20.67;4.88;;;18.90;99.90;;;;;;5013367;28;20041;-53
2023/07/12 05:41:00;;;;;;;17.23;6.07;;;19.00;99.90;;;;;;5025601;28;20045;-54
2023/07/12 05:43:26;;;;;;;18.48;5.60;;;19.00;99.90;;;;;;5014773;28;20068;-55
2023/07/12 05:45:52;;;;;;;18.92;5.20;;;19.10;99.90;;;;;;5029386;28;20033;-55
2023/07/12 05:48:19;;;;;;;20.00;5.55;;;19.20;99.90;;;;;;5045292;28;20048;-54
2023/07/12 05:50:53;;;;;;;16.58;4.93;;;19.20;99.90;;;;;;5012585;28;20037;-54
2023/07/12 05:53:19;;;;;;;18.30;5.25;;;19.20;99.90;;;;;;5028759;28;20045;-52
2023/07/12 05:55:45;;;;;;;15.73;4.82;;;19.30;99.90;;;;;;5036030;28;20048;-54
2023/07/12 05:58:12;;;;;;;13.73;4.50;;;19.30;99.90;;;;;;5028535;28;20409;-55
2023/07/12 06:00:38;;;;;;;16.30;4.32;;;19.20;99.90;;;;;;5036660;28;20037;-55
2023/07/12 06:03:05;;;;;;;15.95;4.53;;;19.20;99.90;;;;;;5023173;28;20112;-53
2023/07/12 06:05:34;;;;;;;16.00;5.38;;;19.20;99.90;;;;;;5023957;28;20491;-55
2023/07/12 06:08:00;;;;;;;16.85;4.93;;;19.20;99.90;;;;;;5029126;28;20543;-54
2023/07/12 06:10:26;;;;;;;22.70;5.45;;;19.30;99.90;;;;;;5010581;28;20124;-55
2023/07/12 06:12:51;;;;;;;25.38;5.75;;;19.50;99.90;;;;;;5014631;28;20407;-53
2023/07/12 06:15:17;;;;;;;14.00;4.72;;;19.60;99.90;;;;;;5028023;28;20045;-55
2023/07/12 06:17:43;;;;;;;19.63;5.57;;;19.80;99.90;;;;;;5011919;28;20064;-56
2023/07/12 06:20:09;;;;;;;11.50;4.25;;;19.80;99.90;;;;;;5019919;28;20483;-55
2023/07/12 06:22:36;;;;;;;18.38;4.72;;;19.80;99.90;;;;;;5046594;28;20043;-55
2023/07/12 06:25:02;;;;;;;15.68;4.38;;;19.80;99.90;;;;;;5027733;28;20460;-55
2023/07/12 06:27:28;;;;;;;16.63;4.75;;;19.60;99.90;;;;;;5028760;28;20036;-55
2023/07/12 06:29:54;;;;;;;20.52;5.07;;;19.40;99.90;;;;;;5021571;28;20041;-54
2023/07/12 06:32:19;;;;;;;17.00;5.43;;;19.10;99.90;;;;;;5025309;28;20052;-52
2023/07/12 06:34:45;;;;;;;16.88;4.30;;;19.10;99.90;;;;;;5011887;28;20069;-54
2023/07/12 06:37:11;;;;;;;21.35;5.53;;;19.10;99.90;;;;;;5028170;28;20052;-55
2023/07/12 06:39:37;;;;;;;16.95;5.03;;;19.10;99.90;;;;;;5025040;28;20051;-55
2023/07/12 06:42:03;;;;;;;17.85;5.07;;;19.10;99.90;;;;;;5031008;28;20053;-56
2023/07/12 06:44:29;;;;;;;19.42;5.18;;;19.10;99.90;;;;;;5031986;28;20151;-56
2023/07/12 06:46:54;;;;;;;18.00;5.57;;;19.10;99.90;;;;;;5030854;28;20432;-55
2023/07/12 06:49:20;;;;;;;16.20;5.18;;;19.30;99.90;;;;;;5025410;28;20053;-56
2023/07/12 06:51:46;;;;;;;19.65;5.10;;;19.40;99.90;;;;;;5007623;28;20069;-56
2023/07/12 06:54:16;;;;;;;17.02;5.43;;;19.50;99.90;;;;;;5027004;28;20029;-55
2023/07/12 06:56:42;;;;;;;14.88;5.57;;;19.50;99.90;;;;;;5033838;28;20125;-56
2023/07/12 06:59:08;;;;;;;16.38;5.38;;;19.50;99.90;;;;;;5023305;28;20128;-57
2023/07/12 07:01:34;;;;;;;21.67;5.07;;;19.50;99.90;;;;;;5039276;28;20052;-56
2023/07/12 07:04:00;;;;;;;13.60;5.75;;;19.40;99.90;;;;;;5052388;28;20292;-57
2023/07/12 07:06:26;;;;;;;16.52;4.78;;;19.40;99.90;;;;;;5032998;28;20053;-57
2023/07/12 07:08:52;;;;;;;16.90;6.13;;;19.00;99.90;;;;;;5032359;28;20534;-56
2023/07/12 07:11:18;;;;;;;16.35;4.95;;;19.00;99.90;;;;;;5045713;28;20045;-57
2023/07/12 07:13:44;;;;;;;11.30;3.35;;;19.00;99.90;;;;;;5032171;28;20075;-57
2023/07/12 07:16:10;;;;;;;8.50;2.75;;;18.70;99.90;;;;;;5032167;28;20128;-57
2023/07/12 07:18:36;;;;;;;6.57;2.15;;;18.60;99.90;;;;;;5031881;28;20511;-57
2023/07/12 07:21:03;;;;;;;6.90;2.85;;;18.50;99.90;;;;;;5014643;28;20056;-57
2023/07/12 07:23:29;;;;;;;7.60;2.63;;;18.50;99.90;;;;;;5031530;28;20121;-57
2023/07/12 07:26:00;;;;;;;7.95;2.35;;;18.50;99.90;;;;;;5012281;28;20076;-57
2023/07/12 07:28:26;;;;;;;7.32;2.33;;;18.30;99.90;;;;;;5024223;28;20032;-57
2023/07/12 07:30:56;;;;;;;6.22;2.00;;;18.30;99.90;;;;;;5011872;28;20033;-57
2023/07/12 07:33:22;;;;;;;5.85;1.98;;;18.20;99.90;;;;;;5022141;28;20080;-57
2023/07/12 07:35:48;;;;;;;8.43;2.53;;;18.20;99.90;;;;;;5029391;28;20048;-57
2023/07/12 07:38:13;;;;;;;7.57;2.15;;;18.30;99.90;;;;;;5029124;28;20041;-57
2023/07/12 07:40:43;;;;;;;7.43;2.65;;;18.30;99.90;;;;;;5028673;28;20439;-57
2023/07/12 07:43:14;;;;;;;8.45;2.78;;;18.40;99.90;;;;;;5025382;28;20550;-57
2023/07/12 07:45:42;;;;;;;11.30;2.90;;;18.30;99.90;;;;;;5014488;28;20032;-56
2023/07/12 07:48:07;;;;;;;11.32;3.22;;;18.40;99.90;;;;;;5035927;28;20051;-57
2023/07/12 07:50:33;;;;;;;9.48;3.72;;;18.60;99.90;;;;;;5047628;28;20037;-57
2023/07/12 07:52:59;;;;;;;10.52;3.45;;;18.90;99.90;;;;;;5037975;28;20033;-57
2023/07/12 07:55:26;;;;;;;7.60;3.20;;;19.20;99.90;;;;;;5027779;28;20055;-56
2023/07/12 07:57:52;;;;;;;8.95;3.17;;;19.30;99.90;;;;;;5045907;28;20048;-57
2023/07/12 08:00:18;;;;;;;13.80;3.45;;;19.50;99.90;;;;;;4997638;28;20049;-56
2023/07/12 08:02:44;;;;;;;9.05;3.22;;;19.50;99.90;;;;;;5015393;28;20044;-57
2023/07/12 08:05:12;;;;;;;11.27;3.38;;;19.50;99.90;;;;;;4997682;28;20045;-56
2023/07/12 08:07:43;;;;;;;8.70;2.70;;;19.40;99.90;;;;;;5028337;28;20104;-56
2023/07/12 08:10:12;;;;;;;7.40;3.10;;;19.50;99.90;;;;;;5049157;28;20041;-56
2023/07/12 08:12:38;;;;;;;11.98;3.10;;;19.50;99.90;;;;;;5022565;28;20115;-57
2023/07/12 08:15:04;;;;;;;9.75;3.22;;;19.50;99.90;;;;;;5039418;28;20041;-56
2023/07/12 08:17:31;;;;;;;7.57;3.30;;;19.50;99.90;;;;;;5029487;28;20048;-57
2023/07/12 08:19:57;;;;;;;8.93;2.67;;;19.40;99.90;;;;;;5033676;28;20127;-57
2023/07/12 08:22:24;;;;;;;10.98;3.25;;;19.40;99.90;;;;;;5043132;28;20516;-56
2023/07/12 08:24:50;;;;;;;6.78;2.80;;;19.30;99.90;;;;;;5029701;28;20028;-57
2023/07/12 08:27:16;;;;;;;5.88;2.53;;;19.40;99.90;;;;;;5029781;28;20036;-57
2023/07/12 08:29:45;;;;;;;9.30;3.10;;;19.50;99.90;;;;;;5015857;28;20468;-57
2023/07/12 08:32:11;;;;;;;9.90;3.30;;;19.70;99.90;;;;;;5013511;28;20041;-56
2023/07/12 08:34:37;;;;;;;8.88;2.85;;;20.00;99.90;;;;;;5028239;28;20045;-57
2023/07/12 08:37:03;;;;;;;7.72;3.00;;;20.20;99.90;;;;;;5024246;28;20042;-57
2023/07/12 08:39:29;;;;;;;8.88;2.88;;;20.20;99.90;;;;;;5020125;28;20042;-57
2023/07/12 08:41:54;;;;;;;6.90;2.72;;;20.40;99.90;;;;;;5012873;28;20048;-56
2023/07/12 08:44:22;;;;;;;8.43;2.55;;;20.50;99.90;;;;;;5025785;28;20045;-56
2023/07/12 08:46:59;;;;;;;7.38;2.63;;;20.40;99.90;;;;;;5033809;28;20127;-56
2023/07/12 08:49:26;;;;;;;6.47;2.47;;;20.40;99.90;;;;;;5040174;28;20507;-57
2023/07/12 08:51:59;;;;;;;6.47;2.80;;;20.50;99.90;;;;;;5029391;28;20029;-57
2023/07/12 08:57:14;;;;;;;8.52;2.53;;;20.80;99.90;;;;;;5066339;28;20518;-53
2023/07/12 08:59:41;;;;;;;7.22;2.67;;;20.90;99.90;;;;;;5042146;28;20041;-55
2023/07/12 09:02:19;;;;;;;10.70;2.63;;;21.10;99.90;;;;;;5058135;28;20063;-52
2023/07/12 09:04:45;;;;;;;10.52;3.22;;;21.10;99.90;;;;;;5061021;28;20398;-51
2023/07/12 09:07:11;;;;;;;7.88;2.85;;;21.20;99.90;;;;;;5049447;28;20357;-55
2023/07/12 09:09:39;;;;;;;9.23;3.15;;;21.30;99.90;;;;;;5039045;28;20442;-53
2023/07/12 09:12:07;;;;;;;10.32;2.90;;;21.20;99.90;;;;;;5039007;28;20498;-53
2023/07/12 09:14:36;;;;;;;5.97;2.45;;;20.90;99.90;;;;;;5063553;28;20032;-54
2023/07/12 09:17:02;;;;;;;7.05;2.42;;;20.80;99.90;;;;;;5044515;28;20068;-54
2023/07/12 09:19:36;;;;;;;5.13;2.00;;;21.00;99.90;;;;;;5044879;28;20503;-55
2023/07/12 09:22:09;;;;;;;;;;;21.10;99.90;;;;;;5044905;28;20040;-54
2023/07/12 09:24:42;;;;;;;6.72;2.22;;;21.50;99.90;;;;;;5048708;28;19960;-54
2023/07/12 09:27:15;;;;;;;;;;;21.80;99.90;;;;;;5042430;28;20040;-55
2023/07/12 09:29:41;;;;;;;8.57;2.92;;;21.80;99.90;;;;;;5047754;28;19916;-55
2023/07/12 09:32:24;;;;;;;8.52;2.55;;;21.80;99.90;;;;;;5055933;28;20036;-54
2023/07/12 09:34:54;;;;;;;7.95;2.88;;;21.60;99.90;;;;;;5045193;28;20503;-55
2023/07/12 09:37:24;;;;;;;6.10;2.40;;;21.20;99.90;;;;;;5015593;28;20048;-54
2023/07/12 09:39:55;;;;;;;5.55;2.22;;;21.00;99.90;;;;;;5030104;28;20045;-54
2023/07/12 09:42:21;;;;;;;6.68;2.75;;;21.00;99.90;;;;;;5040318;28;20124;-54
2023/07/12 09:44:48;;;;;;;6.80;2.78;;;21.30;99.90;;;;;;5045457;28;20119;-53
2023/07/12 09:47:19;;;;;;;6.88;2.33;;;21.50;99.90;;;;;;5066644;28;20195;-53
2023/07/12 09:49:55;;;;;;;7.38;2.38;;;21.50;99.90;;;;;;5025405;28;20067;-52
2023/07/12 09:52:25;;;;;;;5.72;2.30;;;21.20;99.90;;;;;;5048918;28;20106;-55
2023/07/12 09:55:15;;;;;;;6.70;3.00;;;20.70;99.90;;;;;;5042875;28;20052;-55
2023/07/12 09:57:51;;;;;;;6.90;3.00;;;20.60;99.90;;;;;;5065289;28;20024;-51
2023/07/12 10:00:26;;;;;;;7.88;3.25;;;20.70;99.90;;;;;;5048149;28;20044;-54
2023/07/12 10:03:13;;;;;;;8.27;2.78;;;20.70;99.90;;;;;;5042747;28;20560;-54
2023/07/12 10:05:44;;;;;;;8.00;2.40;;;20.60;99.90;;;;;;5043573;28;20110;-54
2023/07/12 10:08:14;;;;;;;6.15;2.42;;;20.80;99.90;;;;;;5061793;28;20116;-55
2023/07/12 10:10:53;;;;;;;7.90;2.55;;;20.80;99.90;;;;;;5039780;28;20044;-54
2023/07/12 10:13:49;;;;;;;6.55;2.38;;;20.90;99.90;;;;;;5042384;28;20602;-54
2023/07/12 10:16:24;;;;;;;5.13;2.42;;;21.20;99.90;;;;;;5041138;28;20045;-55
2023/07/12 10:18:50;;;;;;;7.82;2.28;;;21.20;99.90;;;;;;5043973;28;20044;-55
2023/07/12 10:21:26;;;;;;;6.30;2.53;;;21.10;99.90;;;;;;5062583;28;20510;-55
2023/07/12 10:23:56;;;;;;;3.67;1.70;;;21.10;99.90;;;;;;5052580;28;20596;-54
2023/07/12 10:26:22;;;;;;;5.40;2.17;;;21.00;99.90;;;;;;5051622;28;20076;-54
2023/07/12 10:28:58;;;;;;;7.70;1.75;;;21.10;99.90;;;;;;5067259;28;20048;-55
2023/07/12 10:31:56;;;;;;;7.50;1.98;;;21.20;99.90;;;;;;5042194;28;20106;-55
2023/07/12 10:34:34;;;;;;;4.00;1.75;;;21.30;99.90;;;;;;5051869;28;20528;-52
2023/07/12 10:37:17;;;;;;;3.15;1.67;;;21.30;99.90;;;;;;5048077;28;20385;-53
2023/07/12 10:39:42;;;;;;;4.97;1.40;;;21.50;99.90;;;;;;5043796;28;20535;-53
2023/07/12 10:42:20;;;;;;;9.07;1.75;;;21.40;99.90;;;;;;5026811;28;20040;-54
2023/07/12 10:44:52;;;;;;;2.78;1.48;;;21.20;99.90;;;;;;5026183;28;20083;-51
2023/07/12 10:47:19;;;;;;;4.25;1.60;;;21.60;99.90;;;;;;5027372;28;20040;-52
2023/07/12 10:49:58;;;;;;;4.65;1.60;;;21.50;99.90;;;;;;5050408;28;20056;-53
2023/07/12 10:53:13;;;;;;;4.55;1.48;;;21.40;99.90;;;;;;5041788;28;20040;-51
2023/07/12 10:55:44;;;;;;;2.88;1.30;;;21.30;99.90;;;;;;5061995;28;20052;-54
2023/07/12 10:58:20;;;;;;;4.95;1.67;;;21.40;99.60;;;;;;5026894;28;20143;-53
2023/07/12 11:00:57;;;;;;;5.32;1.80;;;21.80;99.60;;;;;;5045149;28;20079;-52
2023/07/12 11:04:04;;;;;;;6.45;1.92;;;22.00;99.50;;;;;;5063248;28;20102;-52
2023/07/12 11:06:33;;;;;;;4.88;1.60;;;21.80;98.50;;;;;;5031197;28;20115;-54
2023/07/12 11:08:59;;;;;;;4.60;1.40;;;21.90;98.50;;;;;;5050115;28;20040;-52
2023/07/12 11:11:30;;;;;;;4.95;1.50;;;21.70;98.00;;;;;;5048555;28;20110;-52
2023/07/12 11:14:11;;;;;;;3.30;1.92;;;22.00;98.60;;;;;;5068404;28;20042;-54
2023/07/12 11:16:45;;;;;;;5.50;1.98;;;21.90;97.80;;;;;;5032027;28;20103;-54
2023/07/12 11:19:39;;;;;;;7.22;1.33;;;21.80;98.20;;;;;;5045411;28;20052;-55
2023/07/12 11:22:20;;;;;;;;;;;22.10;97.90;;;;;;5028792;28;20102;-53
2023/07/12 11:24:56;;;;;;;6.75;1.45;;;22.20;97.90;;;;;;5065245;28;19920;-54
2023/07/12 11:27:41;;;;;;;5.28;1.40;;;22.50;98.40;;;;;;5043074;28;20442;-52
2023/07/12 11:30:13;;;;;;;5.93;1.45;;;22.40;96.90;;;;;;5046615;28;20256;-54
2023/07/12 11:32:40;;;;;;;5.95;1.70;;;22.40;97.50;;;;;;5067654;28;20040;-53
2023/07/12 11:35:15;;;;;;;2.97;1.00;;;22.70;98.00;;;;;;5044848;28;20537;-52
2023/07/12 11:37:45;;;;;;;2.10;0.80;;;22.50;95.80;;;;;;5050478;28;20555;-56
2023/07/12 11:40:21;;;;;;;1.90;0.85;;;22.20;96.60;;;;;;5029635;28;20109;-52
2023/07/12 11:42:47;;;;;;;5.95;1.00;;;22.20;96.10;;;;;;5030294;28;20044;-52
2023/07/12 11:45:17;;;;;;;3.92;1.42;;;22.30;95.70;;;;;;5068316;28;20036;-53
2023/07/12 11:47:54;;;;;;;3.33;1.10;;;22.30;95.80;;;;;;5067562;28;20032;-54
2023/07/12 11:50:25;;;;;;;4.97;1.30;;;22.50;96.00;;;;;;5063077;28;20043;-52
2023/07/12 11:52:53;;;;;;;3.13;0.90;;;22.90;95.90;;;;;;5049315;28;20071;-52
2023/07/12 11:55:21;;;;;;;4.93;0.98;;;22.90;95.10;;;;;;5040595;28;20033;-54
2023/07/12 11:57:48;;;;;;;4.15;1.45;;;22.50;94.80;;;;;;5050777;28;20048;-55
2023/07/12 12:00:20;;;;;;;3.42;1.13;;;22.50;95.40;;;;;;5034807;28;20032;-52
2023/07/12 12:02:54;;;;;;;4.10;0.88;;;22.40;95.70;;;;;;5032797;28;20044;-54
2023/07/12 12:05:25;;;;;;;3.55;1.10;;;22.50;95.40;;;;;;5050739;28;20498;-54
2023/07/12 12:07:53;;;;;;;4.45;1.00;;;22.20;95.50;;;;;;5027253;28;20037;-54
2023/07/12 12:10:25;;;;;;;2.38;0.95;;;22.40;95.70;;;;;;5052921;28;20056;-53
2023/07/12 12:12:52;;;;;;;2.33;1.05;;;22.50;95.10;;;;;;5033297;28;20040;-54
2023/07/12 12:15:23;;;;;;;3.10;1.08;;;22.70;95.70;;;;;;5038184;28;20580;-55
2023/07/12 12:17:50;;;;;;;2.05;0.88;;;22.70;95.40;;;;;;5047056;28;20417;-53
2023/07/12 12:20:32;;;;;;;3.22;1.00;;;22.90;95.20;;;;;;5056236;28;20087;-52
2023/07/12 12:23:15;;;;;;;5.18;1.52;;;22.90;94.90;;;;;;5039760;28;20047;-53
2023/07/12 12:25:52;;;;;;;3.42;0.70;;;23.20;94.90;;;;;;5055865;28;20523;-54
2023/07/12 12:28:20;;;;;;;3.28;1.02;;;23.40;95.00;;;;;;5064837;28;20037;-54
2023/07/12 12:31:06;;;;;;;3.25;0.93;;;23.20;93.90;;;;;;5031742;28;20045;-55
2023/07/12 12:33:33;;;;;;;2.05;0.90;;;22.90;92.70;;;;;;5035561;28;20045;-55
2023/07/12 12:36:02;;;;;;;3.10;0.68;;;22.90;93.30;;;;;;5067116;28;20040;-52
2023/07/12 12:38:36;;;;;;;1.95;0.80;;;23.00;93.00;;;;;;5044813;28;20041;-53
2023/07/12 12:41:16;;;;;;;3.97;0.70;;;23.10;93.60;;;;;;5024052;28;20037;-52
2023/07/12 12:44:04;;;;;;;4.13;0.93;;;23.40;93.60;;;;;;5048848;28;20041;-54
2023/07/12 12:46:30;;;;;;;4.22;1.17;;;23.20;92.60;;;;;;5041240;28;20056;-55
2023/07/12 12:48:55;;;;;;;3.60;1.10;;;23.20;93.20;;;;;;5045965;28;20048;-52
2023/07/12 12:51:23;;;;;;;1.92;1.10;;;23.20;93.50;;;;;;5049911;28;20060;-52
2023/07/12 12:53:49;;;;;;;4.28;1.00;;;23.20;93.40;;;;;;5049651;28;20087;-55
2023/07/12 12:56:15;;;;;;;5.65;1.00;;;23.10;92.60;;;;;;5047206;28;20068;-55